createdAt,value
2022-09-10T00:01:55.373Z,85.54
2022-09-10T00:07:27.352Z,86.28
2022-09-10T00:12:58.872Z,86.30
2022-09-10T00:18:31.042Z,86.24
2022-09-10T00:24:02.180Z,86.56
2022-09-10T00:29:33.483Z,85.99
2022-09-10T00:35:05.238Z,86.15
2022-09-10T00:40:36.499Z,86.17
2022-09-10T00:46:07.765Z,86.25
2022-09-10T00:51:39.321Z,86.23
2022-09-10T01:02:40.438Z,86.61
2022-09-10T01:08:12.181Z,86.25
2022-09-10T01:13:43.776Z,86.58
2022-09-10T01:19:15.553Z,86.08
2022-09-10T01:24:47.443Z,86.03
2022-09-10T01:35:48.458Z,86.02
2022-09-10T01:41:19.881Z,85.99
2022-09-10T01:46:51.021Z,85.67
2022-09-10T01:52:22.369Z,85.37
2022-09-10T01:57:53.819Z,85.76
2022-09-10T02:03:25.505Z,84.97
2022-09-10T02:08:57.394Z,84.97
2022-09-10T02:14:29.056Z,85.39
2022-09-10T02:20:00.771Z,85.61
2022-09-10T02:25:32.609Z,85.85
2022-09-10T02:31:04.305Z,85.97
2022-09-10T02:36:35.722Z,86.06
2022-09-10T02:42:07.464Z,85.94
2022-09-10T02:53:08.928Z,85.92
2022-09-10T02:58:40.368Z,85.92
2022-09-10T03:04:12.319Z,86.54
2022-09-10T03:09:43.660Z,86.20
2022-09-10T03:15:15.537Z,86.65
2022-09-10T03:20:46.987Z,86.15
2022-09-10T03:26:18.539Z,86.39
2022-09-10T03:31:50.124Z,86.15
2022-09-10T03:37:21.479Z,86.17
2022-09-10T03:42:55.142Z,86.61
2022-09-10T03:48:26.885Z,86.64
2022-09-10T03:53:58.474Z,86.91
2022-09-10T03:59:30.329Z,86.67
2022-09-10T04:05:01.768Z,86.11
2022-09-10T04:10:33.810Z,85.73
2022-09-10T04:16:05.476Z,85.96
2022-09-10T04:21:37.186Z,85.57
2022-09-10T04:27:09.165Z,85.31
2022-09-10T04:32:40.796Z,85.22
2022-09-10T04:38:12.610Z,85.18
2022-09-10T04:43:44.558Z,85.28
2022-09-10T04:51:36.813Z,85.04
2022-09-10T05:02:37.777Z,84.85
2022-09-10T05:08:09.484Z,83.77
2022-09-10T05:13:41.072Z,82.15
2022-09-10T05:19:12.858Z,82.07
2022-09-10T05:21:35.329Z,81.86
2022-09-10T05:27:06.973Z,81.92
2022-09-10T05:32:38.398Z,81.82
2022-09-10T05:38:11.190Z,81.81
2022-09-10T05:43:42.900Z,81.90
2022-09-10T05:49:14.545Z,82.08
2022-09-10T05:54:45.860Z,82.12
2022-09-10T06:00:17.357Z,81.89
2022-09-10T06:11:18.350Z,80.97
2022-09-10T06:16:50.163Z,80.76
2022-09-10T06:22:21.986Z,81.74
2022-09-10T06:27:53.554Z,82.39
2022-09-10T06:33:25.348Z,83.88
2022-09-10T06:38:57.287Z,84.11
2022-09-10T06:44:28.836Z,84.84
2022-09-10T06:50:00.628Z,85.70
2022-09-10T06:55:32.257Z,86.28
2022-09-10T07:01:04.332Z,85.93
2022-09-10T07:06:35.894Z,86.26
2022-09-10T07:12:07.701Z,86.50
2022-09-10T07:17:39.546Z,86.39
2022-09-10T07:23:12.850Z,86.24
2022-09-10T07:28:44.121Z,86.48
2022-09-10T07:34:15.637Z,86.41
2022-09-10T07:39:49.500Z,86.03
2022-09-10T07:45:21.486Z,85.51
2022-09-10T07:50:53.201Z,85.35
2022-09-10T08:01:54.408Z,83.17
2022-09-10T08:07:25.573Z,81.86
2022-09-10T08:18:28.798Z,81.63
2022-09-10T08:24:00.538Z,81.84
2022-09-10T08:29:31.951Z,82.15
2022-09-10T08:35:03.847Z,82.73
2022-09-10T08:40:35.627Z,82.55
2022-09-10T08:46:06.976Z,84.24
2022-09-10T08:51:38.550Z,84.90
2022-09-10T08:57:10.244Z,85.49
2022-09-10T09:02:49.847Z,85.65
2022-09-10T09:08:13.828Z,85.99
2022-09-10T09:13:45.560Z,86.50
2022-09-10T09:19:17.567Z,84.79
2022-09-10T09:24:49.434Z,81.99
2022-09-10T09:30:20.941Z,78.50
2022-09-10T09:35:52.808Z,77.78
2022-09-10T09:41:24.476Z,76.93
2022-09-10T09:46:56.060Z,77.28
2022-09-10T09:52:27.750Z,76.18
2022-09-10T09:57:59.369Z,74.89
2022-09-10T10:03:30.864Z,74.79
2022-09-10T10:09:02.206Z,74.36
2022-09-10T10:14:33.656Z,72.43
2022-09-10T10:20:05.307Z,76.22
2022-09-10T10:25:37.258Z,77.26
2022-09-10T10:31:08.770Z,79.02
2022-09-10T10:36:40.163Z,78.55
2022-09-10T10:42:11.843Z,78.07
2022-09-10T10:53:14.995Z,77.15
2022-09-10T11:04:16.358Z,80.03
2022-09-10T11:09:53.643Z,78.88
2022-09-10T11:15:25.033Z,79.40
2022-09-10T11:20:57.024Z,79.08
2022-09-10T11:26:28.309Z,81.39
2022-09-10T11:31:59.681Z,83.01
2022-09-10T11:37:31.114Z,78.13
2022-09-10T11:43:02.685Z,77.00
2022-09-10T11:48:34.422Z,76.86
2022-09-10T11:54:06.392Z,76.28
2022-09-10T11:59:38.086Z,75.26
2022-09-10T12:05:09.531Z,72.12
2022-09-10T12:10:41.077Z,71.79
2022-09-10T12:16:12.718Z,68.01
2022-09-10T12:21:44.007Z,67.48
2022-09-10T12:27:15.424Z,67.68
2022-09-10T12:32:47.451Z,68.27
2022-09-10T12:38:18.947Z,68.35
2022-09-10T12:43:50.401Z,67.47
2022-09-10T12:49:22.272Z,66.11
2022-09-10T12:54:54.076Z,65.74
2022-09-10T13:00:26.652Z,64.80
2022-09-10T13:05:58.300Z,64.10
2022-09-10T13:11:29.924Z,62.64
2022-09-10T13:17:01.632Z,63.12
2022-09-10T13:28:07.102Z,63.05
2022-09-10T13:33:38.779Z,63.99
2022-09-10T13:39:10.420Z,61.96
2022-09-10T13:44:42.484Z,62.42
2022-09-10T13:50:14.044Z,61.89
2022-09-10T13:55:45.517Z,60.51
2022-09-10T14:01:17.369Z,60.10
2022-09-10T14:06:49.060Z,60.74
2022-09-10T14:12:20.840Z,60.17
2022-09-10T14:17:52.657Z,60.21
2022-09-10T14:25:45.946Z,57.92
2022-09-10T14:31:17.485Z,59.17
2022-09-10T14:36:49.170Z,58.58
2022-09-10T14:42:20.888Z,58.76
2022-09-10T14:47:52.168Z,58.46
2022-09-10T14:53:23.443Z,59.08
2022-09-10T14:58:55.133Z,57.44
2022-09-10T15:04:26.934Z,59.74
2022-09-10T15:09:58.547Z,62.45
2022-09-10T15:15:29.917Z,63.40
2022-09-10T15:21:01.474Z,71.97
2022-09-10T15:26:32.963Z,73.80
2022-09-10T15:37:34.178Z,79.49
2022-09-10T15:43:05.866Z,80.11
2022-09-10T15:48:37.743Z,82.35
2022-09-10T15:54:09.425Z,82.26
2022-09-10T15:59:40.839Z,82.86
2022-09-10T16:05:12.477Z,82.51
2022-09-10T16:10:44.163Z,83.57
2022-09-10T16:16:16.030Z,82.81
2022-09-10T16:21:47.679Z,81.70
2022-09-10T16:27:18.889Z,81.46
2022-09-10T16:32:50.304Z,81.59
2022-09-10T16:38:21.471Z,81.30
2022-09-10T16:43:53.173Z,80.79
2022-09-10T16:49:24.716Z,81.12
2022-09-10T16:54:56.237Z,80.57
2022-09-10T17:00:28.014Z,81.76
2022-09-10T17:05:59.382Z,81.30
2022-09-10T17:11:31.014Z,82.15
2022-09-10T17:17:02.586Z,82.36
2022-09-10T17:22:33.980Z,82.86
2022-09-10T17:28:05.311Z,83.07
2022-09-10T17:33:36.942Z,83.60
2022-09-10T17:39:08.230Z,83.45
2022-09-10T17:44:39.812Z,82.87
2022-09-10T17:50:11.244Z,84.41
2022-09-10T17:55:42.865Z,84.57
2022-09-10T18:01:14.435Z,85.13
2022-09-10T18:06:50.185Z,84.54
2022-09-10T18:12:17.275Z,84.67
2022-09-10T18:17:48.846Z,85.02
2022-09-10T18:23:20.059Z,85.21
2022-09-10T18:28:51.569Z,84.81
2022-09-10T18:34:23.631Z,85.53
2022-09-10T18:39:55.238Z,85.07
2022-09-10T18:45:26.967Z,84.09
2022-09-10T18:50:59.117Z,84.18
2022-09-10T18:56:30.487Z,84.57
2022-09-10T19:02:02.009Z,84.36
2022-09-10T19:07:33.559Z,84.30
2022-09-10T19:13:04.791Z,85.02
2022-09-10T19:18:36.777Z,84.40
2022-09-10T19:24:08.509Z,83.18
2022-09-10T19:35:11.773Z,85.67
2022-09-10T19:40:43.062Z,86.18
2022-09-10T19:46:14.523Z,85.77
2022-09-10T19:51:45.978Z,85.70
2022-09-10T19:57:17.612Z,85.34
2022-09-10T20:02:49.086Z,85.34
2022-09-10T20:08:20.778Z,85.08
2022-09-10T20:13:52.325Z,85.38
2022-09-10T20:19:24.083Z,84.81
2022-09-10T20:30:24.921Z,85.99
2022-09-10T20:35:56.655Z,85.98
2022-09-10T20:41:28.514Z,85.47
2022-09-10T20:47:00.186Z,85.75
2022-09-10T20:52:31.771Z,85.24
2022-09-10T20:58:03.569Z,85.55
2022-09-10T21:03:35.143Z,85.72
2022-09-10T21:09:06.710Z,86.11
2022-09-10T21:14:38.036Z,86.39
2022-09-10T21:20:10.227Z,86.12
2022-09-10T21:25:41.816Z,86.41
2022-09-10T21:31:13.273Z,86.36
2022-09-10T21:36:44.588Z,85.96
2022-09-10T21:42:16.236Z,85.75
2022-09-10T21:47:47.668Z,86.25
2022-09-10T21:53:19.311Z,86.98
2022-09-10T21:58:50.578Z,86.45
2022-09-10T22:04:23.251Z,87.13
2022-09-10T22:09:53.680Z,87.77
2022-09-10T22:15:24.884Z,87.94
2022-09-10T22:20:56.658Z,87.91
2022-09-10T22:26:27.930Z,88.43
2022-09-10T22:31:59.424Z,89.16
2022-09-10T22:37:30.675Z,88.63
2022-09-10T22:43:02.006Z,88.93
2022-09-10T22:48:33.708Z,89.03
2022-09-10T22:54:05.229Z,88.86
2022-09-10T22:59:36.802Z,88.49
2022-09-10T23:05:08.581Z,88.58
2022-09-10T23:10:40.334Z,88.52
2022-09-10T23:16:11.731Z,88.25
2022-09-10T23:21:43.681Z,88.08
2022-09-10T23:27:14.962Z,87.81
2022-09-10T23:32:46.305Z,87.64
2022-09-10T23:38:17.985Z,87.33
2022-09-10T23:43:49.331Z,86.56
2022-09-10T23:51:33.948Z,85.89
2022-09-10T23:57:05.531Z,85.90
